sensor_id;sensor_type;location;lat;lon;timestamp;temperature;humidity
9802;DHT22;4940;50.900;4.672;2023-02-03T00:07:09;10.40;99.90
9802;DHT22;4940;50.900;4.672;2023-02-03T00:09:39;10.40;99.90
9802;DHT22;4940;50.900;4.672;2023-02-03T00:12:06;10.40;99.90
9802;DHT22;4940;50.900;4.672;2023-02-03T00:24:26;10.30;99.90
9802;DHT22;4940;50.900;4.672;2023-02-03T00:26:54;10.30;99.90
9802;DHT22;4940;50.900;4.672;2023-02-03T00:44:10;9.90;99.90
9802;DHT22;4940;50.900;4.672;2023-02-03T00:49:05;10.30;99.90
9802;DHT22;4940;50.900;4.672;2023-02-03T01:01:23;10.30;99.90
9802;DHT22;4940;50.900;4.672;2023-02-03T01:03:52;10.30;99.90
9802;DHT22;4940;50.900;4.672;2023-02-03T01:06:20;10.30;99.90
9802;DHT22;4940;50.900;4.672;2023-02-03T01:11:16;10.30;99.90
9802;DHT22;4940;50.900;4.672;2023-02-03T01:16:14;10.30;99.90
9802;DHT22;4940;50.900;4.672;2023-02-03T01:18:43;10.30;99.90
9802;DHT22;4940;50.900;4.672;2023-02-03T01:21:12;10.30;99.90
9802;DHT22;4940;50.900;4.672;2023-02-03T01:26:09;10.40;99.90
9802;DHT22;4940;50.900;4.672;2023-02-03T01:31:11;10.30;99.90
9802;DHT22;4940;50.900;4.672;2023-02-03T01:36:08;10.30;99.90
9802;DHT22;4940;50.900;4.672;2023-02-03T01:38:36;10.30;99.90
9802;DHT22;4940;50.900;4.672;2023-02-03T01:41:05;10.40;99.90
9802;DHT22;4940;50.900;4.672;2023-02-03T01:43:34;10.30;99.90
9802;DHT22;4940;50.900;4.672;2023-02-03T01:46:05;10.30;99.90
9802;DHT22;4940;50.900;4.672;2023-02-03T01:48:33;10.30;99.90
9802;DHT22;4940;50.900;4.672;2023-02-03T01:51:02;10.40;99.90
9802;DHT22;4940;50.900;4.672;2023-02-03T01:53:31;10.30;99.90
9802;DHT22;4940;50.900;4.672;2023-02-03T01:56:00;10.40;99.90
9802;DHT22;4940;50.900;4.672;2023-02-03T01:58:31;10.30;99.90
9802;DHT22;4940;50.900;4.672;2023-02-03T02:03:31;10.40;99.90
9802;DHT22;4940;50.900;4.672;2023-02-03T02:06:03;10.30;99.90
9802;DHT22;4940;50.900;4.672;2023-02-03T02:08:32;10.30;99.90
9802;DHT22;4940;50.900;4.672;2023-02-03T02:10:59;10.30;99.90
9802;DHT22;4940;50.900;4.672;2023-02-03T02:13:29;10.30;99.90
9802;DHT22;4940;50.900;4.672;2023-02-03T02:16:02;10.10;99.90
9802;DHT22;4940;50.900;4.672;2023-02-03T02:18:57;10.30;99.90
9802;DHT22;4940;50.900;4.672;2023-02-03T02:21:40;10.30;99.90
9802;DHT22;4940;50.900;4.672;2023-02-03T02:24:46;10.30;99.90
9802;DHT22;4940;50.900;4.672;2023-02-03T02:30:53;10.30;99.90
9802;DHT22;4940;50.900;4.672;2023-02-03T02:33:35;10.30;99.90
9802;DHT22;4940;50.900;4.672;2023-02-03T02:36:13;10.30;99.90
9802;DHT22;4940;50.900;4.672;2023-02-03T02:38:48;10.30;99.90
9802;DHT22;4940;50.900;4.672;2023-02-03T02:41:20;10.30;99.90
9802;DHT22;4940;50.900;4.672;2023-02-03T02:43:55;10.30;99.90
9802;DHT22;4940;50.900;4.672;2023-02-03T02:46:29;10.30;99.90
9802;DHT22;4940;50.900;4.672;2023-02-03T02:49:02;10.30;99.90
9802;DHT22;4940;50.900;4.672;2023-02-03T02:51:31;10.30;99.90
9802;DHT22;4940;50.900;4.672;2023-02-03T02:54:01;10.20;99.90
9802;DHT22;4940;50.900;4.672;2023-02-03T02:56:31;10.30;99.90
9802;DHT22;4940;50.900;4.672;2023-02-03T02:59:00;10.40;99.90
9802;DHT22;4940;50.900;4.672;2023-02-03T03:03:59;10.40;99.90
9802;DHT22;4940;50.900;4.672;2023-02-03T03:06:31;10.50;99.90
9802;DHT22;4940;50.900;4.672;2023-02-03T03:09:03;10.10;99.90
9802;DHT22;4940;50.900;4.672;2023-02-03T03:11:34;10.50;99.90
9802;DHT22;4940;50.900;4.672;2023-02-03T03:14:04;10.30;99.90
9802;DHT22;4940;50.900;4.672;2023-02-03T03:16:35;10.40;99.90
9802;DHT22;4940;50.900;4.672;2023-02-03T03:19:07;10.30;99.90
9802;DHT22;4940;50.900;4.672;2023-02-03T03:21:39;10.30;99.90
9802;DHT22;4940;50.900;4.672;2023-02-03T03:24:10;10.40;99.90
9802;DHT22;4940;50.900;4.672;2023-02-03T03:26:41;10.40;99.90
9802;DHT22;4940;50.900;4.672;2023-02-03T03:29:14;10.40;99.90
9802;DHT22;4940;50.900;4.672;2023-02-03T03:31:44;10.70;99.90
9802;DHT22;4940;50.900;4.672;2023-02-03T03:34:13;10.40;99.90
9802;DHT22;4940;50.900;4.672;2023-02-03T03:36:45;10.40;99.90
9802;DHT22;4940;50.900;4.672;2023-02-03T03:39:16;10.40;99.90
9802;DHT22;4940;50.900;4.672;2023-02-03T03:41:56;10.70;99.90
9802;DHT22;4940;50.900;4.672;2023-02-03T03:44:27;10.30;99.90
9802;DHT22;4940;50.900;4.672;2023-02-03T03:47:03;10.40;99.90
9802;DHT22;4940;50.900;4.672;2023-02-03T03:49:35;10.40;99.90
9802;DHT22;4940;50.900;4.672;2023-02-03T03:52:06;10.40;99.90
9802;DHT22;4940;50.900;4.672;2023-02-03T03:54:36;10.40;99.90
9802;DHT22;4940;50.900;4.672;2023-02-03T03:57:07;10.40;99.90
9802;DHT22;4940;50.900;4.672;2023-02-03T03:59:40;10.40;99.90
9802;DHT22;4940;50.900;4.672;2023-02-03T04:02:10;10.40;99.90
9802;DHT22;4940;50.900;4.672;2023-02-03T04:04:39;10.40;99.90
9802;DHT22;4940;50.900;4.672;2023-02-03T04:14:32;10.20;99.90
9802;DHT22;4940;50.900;4.672;2023-02-03T04:21:56;10.50;99.90
9802;DHT22;4940;50.900;4.672;2023-02-03T04:24:24;10.30;99.90
9802;DHT22;4940;50.900;4.672;2023-02-03T04:39:10;10.70;99.90
9802;DHT22;4940;50.900;4.672;2023-02-03T05:03:46;10.40;99.90
9802;DHT22;4940;50.900;4.672;2023-02-03T05:13:37;10.40;99.90
9802;DHT22;4940;50.900;4.672;2023-02-03T05:16:05;10.50;99.90
9802;DHT22;4940;50.900;4.672;2023-02-03T05:30:51;10.10;99.90
9802;DHT22;4940;50.900;4.672;2023-02-03T05:43:27;10.30;99.90
9802;DHT22;4940;50.900;4.672;2023-02-03T05:45:58;10.30;99.90
9802;DHT22;4940;50.900;4.672;2023-02-03T06:03:12;10.40;99.90
9802;DHT22;4940;50.900;4.672;2023-02-03T06:13:08;10.10;99.90
9802;DHT22;4940;50.900;4.672;2023-02-03T06:20:32;10.30;99.90
9802;DHT22;4940;50.900;4.672;2023-02-03T06:23:00;10.40;99.90
9802;DHT22;4940;50.900;4.672;2023-02-03T06:42:44;10.40;99.90
9802;DHT22;4940;50.900;4.672;2023-02-03T06:50:07;10.40;99.90
9802;DHT22;4940;50.900;4.672;2023-02-03T06:55:05;10.40;99.90
9802;DHT22;4940;50.900;4.672;2023-02-03T07:12:19;10.30;99.90
9802;DHT22;4940;50.900;4.672;2023-02-03T07:22:08;10.40;99.90
9802;DHT22;4940;50.900;4.672;2023-02-03T07:29:32;10.40;99.90
9802;DHT22;4940;50.900;4.672;2023-02-03T07:44:17;10.40;99.90
9802;DHT22;4940;50.900;4.672;2023-02-03T07:46:46;10.50;99.90
9802;DHT22;4940;50.900;4.672;2023-02-03T07:49:14;10.50;99.90
9802;DHT22;4940;50.900;4.672;2023-02-03T08:04:00;10.50;99.90
9802;DHT22;4940;50.900;4.672;2023-02-03T08:23:43;10.90;99.90
9802;DHT22;4940;50.900;4.672;2023-02-03T08:31:09;10.70;99.90
9802;DHT22;4940;50.900;4.672;2023-02-03T08:36:05;10.70;99.90
9802;DHT22;4940;50.900;4.672;2023-02-03T08:38:33;10.80;99.90
9802;DHT22;4940;50.900;4.672;2023-02-03T08:55:46;10.90;99.90
9802;DHT22;4940;50.900;4.672;2023-02-03T09:00:41;11.00;99.90
9802;DHT22;4940;50.900;4.672;2023-02-03T09:03:09;11.10;99.90
9802;DHT22;4940;50.900;4.672;2023-02-03T09:13:00;11.00;99.90
9802;DHT22;4940;50.900;4.672;2023-02-03T09:30:16;10.90;99.90
9802;DHT22;4940;50.900;4.672;2023-02-03T09:40:17;10.90;99.90
9802;DHT22;4940;50.900;4.672;2023-02-03T09:43:03;11.00;99.90
9802;DHT22;4940;50.900;4.672;2023-02-03T09:45:36;10.90;99.90
9802;DHT22;4940;50.900;4.672;2023-02-03T09:48:08;10.90;99.90
9802;DHT22;4940;50.900;4.672;2023-02-03T09:50:39;11.00;99.90
9802;DHT22;4940;50.900;4.672;2023-02-03T09:53:13;11.00;99.90
9802;DHT22;4940;50.900;4.672;2023-02-03T09:55:44;11.00;99.90
9802;DHT22;4940;50.900;4.672;2023-02-03T09:58:14;11.00;99.90
9802;DHT22;4940;50.900;4.672;2023-02-03T10:00:47;11.10;99.90
9802;DHT22;4940;50.900;4.672;2023-02-03T10:03:24;11.00;99.90
9802;DHT22;4940;50.900;4.672;2023-02-03T10:06:07;11.00;99.90
9802;DHT22;4940;50.900;4.672;2023-02-03T10:08:49;11.10;99.90
9802;DHT22;4940;50.900;4.672;2023-02-03T10:11:28;11.10;99.90
9802;DHT22;4940;50.900;4.672;2023-02-03T10:14:09;11.10;99.90
9802;DHT22;4940;50.900;4.672;2023-02-03T10:16:54;11.20;99.90
9802;DHT22;4940;50.900;4.672;2023-02-03T10:19:27;11.20;99.90
9802;DHT22;4940;50.900;4.672;2023-02-03T10:21:59;11.10;99.90
9802;DHT22;4940;50.900;4.672;2023-02-03T10:24:35;11.30;99.90
9802;DHT22;4940;50.900;4.672;2023-02-03T10:29:35;11.40;99.90
9802;DHT22;4940;50.900;4.672;2023-02-03T10:32:08;11.70;99.90
9802;DHT22;4940;50.900;4.672;2023-02-03T10:34:36;11.50;99.90
9802;DHT22;4940;50.900;4.672;2023-02-03T10:37:10;11.50;99.90
9802;DHT22;4940;50.900;4.672;2023-02-03T10:39:45;11.60;99.90
9802;DHT22;4940;50.900;4.672;2023-02-03T10:42:13;11.00;99.90
9802;DHT22;4940;50.900;4.672;2023-02-03T10:44:42;11.60;99.90
9802;DHT22;4940;50.900;4.672;2023-02-03T10:47:32;11.50;99.90
9802;DHT22;4940;50.900;4.672;2023-02-03T10:50:04;11.60;99.90
9802;DHT22;4940;50.900;4.672;2023-02-03T10:52:34;11.50;99.90
9802;DHT22;4940;50.900;4.672;2023-02-03T10:55:05;11.50;99.90
9802;DHT22;4940;50.900;4.672;2023-02-03T10:57:35;11.50;99.90
9802;DHT22;4940;50.900;4.672;2023-02-03T11:00:20;11.50;99.90
9802;DHT22;4940;50.900;4.672;2023-02-03T11:02:56;11.50;99.90
9802;DHT22;4940;50.900;4.672;2023-02-03T11:07:52;11.50;99.90
9802;DHT22;4940;50.900;4.672;2023-02-03T11:10:32;11.50;99.90
9802;DHT22;4940;50.900;4.672;2023-02-03T11:13:19;11.50;99.90
9802;DHT22;4940;50.900;4.672;2023-02-03T11:15:55;11.50;99.90
9802;DHT22;4940;50.900;4.672;2023-02-03T11:21:17;11.50;99.90
9802;DHT22;4940;50.900;4.672;2023-02-03T11:23:52;11.40;99.90
9802;DHT22;4940;50.900;4.672;2023-02-03T11:26:23;11.30;99.90
9802;DHT22;4940;50.900;4.672;2023-02-03T11:28:54;11.50;99.90
9802;DHT22;4940;50.900;4.672;2023-02-03T11:31:24;12.00;99.90
9802;DHT22;4940;50.900;4.672;2023-02-03T11:33:59;11.60;99.90
9802;DHT22;4940;50.900;4.672;2023-02-03T11:36:28;11.50;99.90
9802;DHT22;4940;50.900;4.672;2023-02-03T11:39:19;11.50;99.90
9802;DHT22;4940;50.900;4.672;2023-02-03T11:44:21;11.70;99.90
9802;DHT22;4940;50.900;4.672;2023-02-03T11:46:51;11.60;99.90
9802;DHT22;4940;50.900;4.672;2023-02-03T11:49:37;11.80;99.90
9802;DHT22;4940;50.900;4.672;2023-02-03T11:52:23;11.60;99.90
9802;DHT22;4940;50.900;4.672;2023-02-03T11:55:02;11.60;99.90
9802;DHT22;4940;50.900;4.672;2023-02-03T11:57:40;11.50;99.90
9802;DHT22;4940;50.900;4.672;2023-02-03T12:00:21;11.50;99.90
9802;DHT22;4940;50.900;4.672;2023-02-03T12:03:21;11.40;99.90
9802;DHT22;4940;50.900;4.672;2023-02-03T12:06:13;11.50;99.90
9802;DHT22;4940;50.900;4.672;2023-02-03T12:11:38;11.60;99.90
9802;DHT22;4940;50.900;4.672;2023-02-03T12:14:24;11.60;99.90
9802;DHT22;4940;50.900;4.672;2023-02-03T12:17:27;11.50;99.90
9802;DHT22;4940;50.900;4.672;2023-02-03T12:20:04;11.60;99.90
9802;DHT22;4940;50.900;4.672;2023-02-03T12:22:42;11.70;99.90
9802;DHT22;4940;50.900;4.672;2023-02-03T12:25:29;11.60;99.90
9802;DHT22;4940;50.900;4.672;2023-02-03T12:28:05;11.60;99.90
9802;DHT22;4940;50.900;4.672;2023-02-03T12:30:40;11.60;99.90
9802;DHT22;4940;50.900;4.672;2023-02-03T12:33:14;11.60;99.90
9802;DHT22;4940;50.900;4.672;2023-02-03T12:35:47;11.70;99.90
9802;DHT22;4940;50.900;4.672;2023-02-03T12:38:28;11.70;99.90
9802;DHT22;4940;50.900;4.672;2023-02-03T12:40:59;12.00;99.90
9802;DHT22;4940;50.900;4.672;2023-02-03T12:43:32;11.90;99.90
9802;DHT22;4940;50.900;4.672;2023-02-03T12:46:10;11.90;99.90
9802;DHT22;4940;50.900;4.672;2023-02-03T12:48:44;11.60;99.90
9802;DHT22;4940;50.900;4.672;2023-02-03T12:51:16;12.00;99.90
9802;DHT22;4940;50.900;4.672;2023-02-03T12:53:55;12.20;99.90
9802;DHT22;4940;50.900;4.672;2023-02-03T12:56:28;11.90;99.90
9802;DHT22;4940;50.900;4.672;2023-02-03T12:59:02;12.00;99.90
9802;DHT22;4940;50.900;4.672;2023-02-03T13:01:34;11.90;99.90
9802;DHT22;4940;50.900;4.672;2023-02-03T13:04:07;12.00;99.90
9802;DHT22;4940;50.900;4.672;2023-02-03T13:06:42;12.00;99.90
9802;DHT22;4940;50.900;4.672;2023-02-03T13:09:25;12.00;99.90
9802;DHT22;4940;50.900;4.672;2023-02-03T13:11:57;12.00;99.90
9802;DHT22;4940;50.900;4.672;2023-02-03T13:14:31;12.30;99.90
9802;DHT22;4940;50.900;4.672;2023-02-03T13:17:06;12.10;99.90
9802;DHT22;4940;50.900;4.672;2023-02-03T13:19:39;12.10;99.90
9802;DHT22;4940;50.900;4.672;2023-02-03T13:22:10;12.00;99.90
9802;DHT22;4940;50.900;4.672;2023-02-03T13:24:41;12.20;99.90
9802;DHT22;4940;50.900;4.672;2023-02-03T13:27:20;12.10;99.90
9802;DHT22;4940;50.900;4.672;2023-02-03T13:30:03;12.30;99.90
9802;DHT22;4940;50.900;4.672;2023-02-03T13:32:55;12.40;99.90
9802;DHT22;4940;50.900;4.672;2023-02-03T13:35:41;12.40;99.90
9802;DHT22;4940;50.900;4.672;2023-02-03T13:38:23;12.30;99.90
9802;DHT22;4940;50.900;4.672;2023-02-03T13:43:31;12.30;99.90
9802;DHT22;4940;50.900;4.672;2023-02-03T13:46:00;12.30;99.90
9802;DHT22;4940;50.900;4.672;2023-02-03T13:48:30;12.20;99.90
9802;DHT22;4940;50.900;4.672;2023-02-03T13:51:04;12.30;99.90
9802;DHT22;4940;50.900;4.672;2023-02-03T13:53:35;12.20;99.90
9802;DHT22;4940;50.900;4.672;2023-02-03T13:56:06;12.20;99.90
9802;DHT22;4940;50.900;4.672;2023-02-03T13:58:36;12.20;99.90
9802;DHT22;4940;50.900;4.672;2023-02-03T14:01:06;12.10;99.90
9802;DHT22;4940;50.900;4.672;2023-02-03T14:09:39;12.10;99.90
9802;DHT22;4940;50.900;4.672;2023-02-03T14:12:33;12.10;99.90
9802;DHT22;4940;50.900;4.672;2023-02-03T14:15:16;12.10;99.90
9802;DHT22;4940;50.900;4.672;2023-02-03T14:20:49;12.00;99.90
9802;DHT22;4940;50.900;4.672;2023-02-03T14:23:22;12.00;99.90
9802;DHT22;4940;50.900;4.672;2023-02-03T14:25:54;12.00;99.90
9802;DHT22;4940;50.900;4.672;2023-02-03T14:28:29;12.00;99.90
9802;DHT22;4940;50.900;4.672;2023-02-03T14:31:05;11.90;99.90
9802;DHT22;4940;50.900;4.672;2023-02-03T14:34:06;12.10;99.90
9802;DHT22;4940;50.900;4.672;2023-02-03T14:36:49;12.00;99.90
9802;DHT22;4940;50.900;4.672;2023-02-03T14:43:05;12.10;99.90
9802;DHT22;4940;50.900;4.672;2023-02-03T14:45:48;12.00;99.90
9802;DHT22;4940;50.900;4.672;2023-02-03T14:48:45;12.10;99.90
9802;DHT22;4940;50.900;4.672;2023-02-03T14:51:23;12.00;99.90
9802;DHT22;4940;50.900;4.672;2023-02-03T14:59:47;12.30;99.90
9802;DHT22;4940;50.900;4.672;2023-02-03T15:02:19;12.10;99.90
9802;DHT22;4940;50.900;4.672;2023-02-03T15:07:36;12.10;99.90
9802;DHT22;4940;50.900;4.672;2023-02-03T15:10:11;12.10;99.90
9802;DHT22;4940;50.900;4.672;2023-02-03T15:12:44;12.20;99.90
9802;DHT22;4940;50.900;4.672;2023-02-03T15:15:19;12.10;99.90
9802;DHT22;4940;50.900;4.672;2023-02-03T15:17:50;12.10;99.90
9802;DHT22;4940;50.900;4.672;2023-02-03T15:20:26;12.10;99.90
9802;DHT22;4940;50.900;4.672;2023-02-03T15:25:23;12.10;99.90
9802;DHT22;4940;50.900;4.672;2023-02-03T15:30:23;12.10;99.90
9802;DHT22;4940;50.900;4.672;2023-02-03T15:32:58;12.00;99.90
9802;DHT22;4940;50.900;4.672;2023-02-03T15:35:30;12.00;99.90
9802;DHT22;4940;50.900;4.672;2023-02-03T15:37:59;12.10;99.90
9802;DHT22;4940;50.900;4.672;2023-02-03T15:40:34;12.00;99.90
9802;DHT22;4940;50.900;4.672;2023-02-03T15:43:07;12.00;99.90
9802;DHT22;4940;50.900;4.672;2023-02-03T15:45:38;11.80;99.90
9802;DHT22;4940;50.900;4.672;2023-02-03T15:48:16;12.00;99.90
9802;DHT22;4940;50.900;4.672;2023-02-03T15:50:46;12.00;99.90
9802;DHT22;4940;50.900;4.672;2023-02-03T15:53:19;12.00;99.90
9802;DHT22;4940;50.900;4.672;2023-02-03T15:55:49;12.30;99.90
9802;DHT22;4940;50.900;4.672;2023-02-03T15:58:19;11.90;99.90
9802;DHT22;4940;50.900;4.672;2023-02-03T16:00:48;11.90;99.90
9802;DHT22;4940;50.900;4.672;2023-02-03T16:03:19;11.80;99.90
9802;DHT22;4940;50.900;4.672;2023-02-03T16:05:47;11.80;99.90
9802;DHT22;4940;50.900;4.672;2023-02-03T16:08:26;12.00;99.90
9802;DHT22;4940;50.900;4.672;2023-02-03T16:13:23;11.70;99.90
9802;DHT22;4940;50.900;4.672;2023-02-03T16:15:59;11.70;99.90
9802;DHT22;4940;50.900;4.672;2023-02-03T16:18:29;11.70;99.90
9802;DHT22;4940;50.900;4.672;2023-02-03T16:23:24;11.70;99.90
9802;DHT22;4940;50.900;4.672;2023-02-03T16:26:02;11.70;99.90
9802;DHT22;4940;50.900;4.672;2023-02-03T16:31:16;11.60;99.90
9802;DHT22;4940;50.900;4.672;2023-02-03T16:34:11;11.60;99.90
9802;DHT22;4940;50.900;4.672;2023-02-03T16:42:36;11.50;99.90
9802;DHT22;4940;50.900;4.672;2023-02-03T16:48:08;11.50;99.90
9802;DHT22;4940;50.900;4.672;2023-02-03T16:50:55;11.50;99.90
9802;DHT22;4940;50.900;4.672;2023-02-03T16:53:24;11.40;99.90
9802;DHT22;4940;50.900;4.672;2023-02-03T16:55:53;11.50;99.90
9802;DHT22;4940;50.900;4.672;2023-02-03T17:00:49;11.50;99.90
9802;DHT22;4940;50.900;4.672;2023-02-03T17:03:18;11.40;99.90
9802;DHT22;4940;50.900;4.672;2023-02-03T17:05:47;11.40;99.90
9802;DHT22;4940;50.900;4.672;2023-02-03T17:08:17;11.40;99.90
9802;DHT22;4940;50.900;4.672;2023-02-03T17:10:45;11.40;99.90
9802;DHT22;4940;50.900;4.672;2023-02-03T17:13:15;11.40;99.90
9802;DHT22;4940;50.900;4.672;2023-02-03T17:15:44;11.40;99.90
9802;DHT22;4940;50.900;4.672;2023-02-03T17:18:12;11.40;99.90
9802;DHT22;4940;50.900;4.672;2023-02-03T17:20:41;11.40;99.90
9802;DHT22;4940;50.900;4.672;2023-02-03T17:23:09;10.90;99.90
9802;DHT22;4940;50.900;4.672;2023-02-03T17:25:38;11.50;99.90
9802;DHT22;4940;50.900;4.672;2023-02-03T17:28:07;11.40;99.90
9802;DHT22;4940;50.900;4.672;2023-02-03T17:33:03;11.30;99.90
9802;DHT22;4940;50.900;4.672;2023-02-03T17:43:00;11.50;99.90
9802;DHT22;4940;50.900;4.672;2023-02-03T17:47:57;11.20;99.90
9802;DHT22;4940;50.900;4.672;2023-02-03T18:00:19;11.30;99.90
9802;DHT22;4940;50.900;4.672;2023-02-03T18:02:48;11.10;99.90
9802;DHT22;4940;50.900;4.672;2023-02-03T18:15:07;11.20;99.90
9802;DHT22;4940;50.900;4.672;2023-02-03T18:17:36;11.20;99.90
9802;DHT22;4940;50.900;4.672;2023-02-03T18:20:03;11.20;99.90
9802;DHT22;4940;50.900;4.672;2023-02-03T18:34:50;11.30;99.90
9802;DHT22;4940;50.900;4.672;2023-02-03T18:39:46;11.20;99.90
9802;DHT22;4940;50.900;4.672;2023-02-03T18:49:36;11.20;99.90
9802;DHT22;4940;50.900;4.672;2023-02-03T18:52:06;11.10;99.90
9802;DHT22;4940;50.900;4.672;2023-02-03T19:04:24;11.30;99.90
9802;DHT22;4940;50.900;4.672;2023-02-03T19:09:20;11.30;99.90
9802;DHT22;4940;50.900;4.672;2023-02-03T19:14:16;11.30;99.90
9802;DHT22;4940;50.900;4.672;2023-02-03T19:19:11;11.20;99.90
9802;DHT22;4940;50.900;4.672;2023-02-03T19:26:35;11.20;99.90
9802;DHT22;4940;50.900;4.672;2023-02-03T19:33:58;11.00;99.90
9802;DHT22;4940;50.900;4.672;2023-02-03T19:36:26;11.20;99.90
9802;DHT22;4940;50.900;4.672;2023-02-03T19:38:54;11.30;99.90
9802;DHT22;4940;50.900;4.672;2023-02-03T19:41:22;11.30;99.90
9802;DHT22;4940;50.900;4.672;2023-02-03T19:43:52;11.30;99.90
9802;DHT22;4940;50.900;4.672;2023-02-03T20:01:06;11.10;99.90
9802;DHT22;4940;50.900;4.672;2023-02-03T20:18:21;11.20;99.90
9802;DHT22;4940;50.900;4.672;2023-02-03T20:20:49;11.20;99.90
9802;DHT22;4940;50.900;4.672;2023-02-03T20:23:17;11.30;99.90
9802;DHT22;4940;50.900;4.672;2023-02-03T20:25:47;11.20;99.90
9802;DHT22;4940;50.900;4.672;2023-02-03T20:30:42;11.30;99.90
9802;DHT22;4940;50.900;4.672;2023-02-03T20:35:38;11.20;99.90
9802;DHT22;4940;50.900;4.672;2023-02-03T20:43:15;11.20;99.90
9802;DHT22;4940;50.900;4.672;2023-02-03T20:48:12;11.30;99.90
9802;DHT22;4940;50.900;4.672;2023-02-03T20:50:41;11.10;99.90
9802;DHT22;4940;50.900;4.672;2023-02-03T20:53:13;11.20;99.90
9802;DHT22;4940;50.900;4.672;2023-02-03T20:58:16;11.10;99.90
9802;DHT22;4940;50.900;4.672;2023-02-03T21:03:14;11.00;99.90
9802;DHT22;4940;50.900;4.672;2023-02-03T21:06:00;11.00;99.90
9802;DHT22;4940;50.900;4.672;2023-02-03T21:13:24;10.90;99.90
9802;DHT22;4940;50.900;4.672;2023-02-03T21:15:53;10.90;99.90
9802;DHT22;4940;50.900;4.672;2023-02-03T21:18:27;11.00;99.90
9802;DHT22;4940;50.900;4.672;2023-02-03T21:20:55;10.90;99.90
9802;DHT22;4940;50.900;4.672;2023-02-03T21:23:26;10.80;99.90
9802;DHT22;4940;50.900;4.672;2023-02-03T21:28:24;10.90;99.90
9802;DHT22;4940;50.900;4.672;2023-02-03T21:30:52;10.80;99.90
9802;DHT22;4940;50.900;4.672;2023-02-03T21:33:31;10.70;99.90
9802;DHT22;4940;50.900;4.672;2023-02-03T21:38:30;10.60;99.90
9802;DHT22;4940;50.900;4.672;2023-02-03T21:43:26;11.30;99.90
9802;DHT22;4940;50.900;4.672;2023-02-03T21:45:55;10.90;99.90
9802;DHT22;4940;50.900;4.672;2023-02-03T21:48:27;10.60;99.90
9802;DHT22;4940;50.900;4.672;2023-02-03T21:50:58;10.60;99.90
9802;DHT22;4940;50.900;4.672;2023-02-03T21:53:29;10.90;99.90
9802;DHT22;4940;50.900;4.672;2023-02-03T21:56:14;10.90;99.90
9802;DHT22;4940;50.900;4.672;2023-02-03T21:58:42;10.60;99.90
9802;DHT22;4940;50.900;4.672;2023-02-03T22:01:11;10.60;99.90
9802;DHT22;4940;50.900;4.672;2023-02-03T22:03:42;10.60;99.90
9802;DHT22;4940;50.900;4.672;2023-02-03T22:06:19;10.60;99.90
9802;DHT22;4940;50.900;4.672;2023-02-03T22:08:50;10.70;99.90
9802;DHT22;4940;50.900;4.672;2023-02-03T22:11:19;10.60;99.90
9802;DHT22;4940;50.900;4.672;2023-02-03T22:13:46;10.60;99.90
9802;DHT22;4940;50.900;4.672;2023-02-03T22:16:14;10.60;99.90
9802;DHT22;4940;50.900;4.672;2023-02-03T22:23:38;10.60;99.90
9802;DHT22;4940;50.900;4.672;2023-02-03T22:26:08;10.60;99.90
9802;DHT22;4940;50.900;4.672;2023-02-03T22:28:36;10.70;99.90
9802;DHT22;4940;50.900;4.672;2023-02-03T22:33:32;10.60;99.90
9802;DHT22;4940;50.900;4.672;2023-02-03T22:38:28;10.60;99.90
9802;DHT22;4940;50.900;4.672;2023-02-03T22:43:24;10.70;99.90
9802;DHT22;4940;50.900;4.672;2023-02-03T22:45:52;10.60;99.90
9802;DHT22;4940;50.900;4.672;2023-02-03T22:48:20;10.70;99.90
9802;DHT22;4940;50.900;4.672;2023-02-03T23:00:39;10.70;99.90
9802;DHT22;4940;50.900;4.672;2023-02-03T23:10:29;10.70;99.90
9802;DHT22;4940;50.900;4.672;2023-02-03T23:15:25;10.60;99.90
9802;DHT22;4940;50.900;4.672;2023-02-03T23:17:54;10.70;99.90
9802;DHT22;4940;50.900;4.672;2023-02-03T23:20:22;10.80;99.90
9802;DHT22;4940;50.900;4.672;2023-02-03T23:25:17;10.80;99.90
9802;DHT22;4940;50.900;4.672;2023-02-03T23:30:13;11.00;99.90
9802;DHT22;4940;50.900;4.672;2023-02-03T23:35:09;10.80;99.90
9802;DHT22;4940;50.900;4.672;2023-02-03T23:42:49;10.80;99.90
9802;DHT22;4940;50.900;4.672;2023-02-03T23:47:44;10.80;99.90
9802;DHT22;4940;50.900;4.672;2023-02-03T23:50:15;10.80;99.90
9802;DHT22;4940;50.900;4.672;2023-02-03T23:55:14;10.80;99.90
